createdAt,value
2018-12-22T00:00:31.666Z,73.18
2018-12-22T00:02:59.290Z,73.36
2018-12-22T00:05:27.296Z,72.86
2018-12-22T00:07:54.912Z,72.65
2018-12-22T00:10:22.517Z,72.83
2018-12-22T00:12:50.125Z,73.05
2018-12-22T00:15:17.714Z,72.92
2018-12-22T00:17:45.321Z,73.22
2018-12-22T00:20:13.268Z,72.88
2018-12-22T00:22:41.442Z,72.90
2018-12-22T00:25:09.037Z,72.99
2018-12-22T00:27:38.750Z,72.92
2018-12-22T00:30:07.236Z,72.84
2018-12-22T00:32:34.799Z,73.33
2018-12-22T00:35:02.486Z,73.58
2018-12-22T00:37:32.245Z,73.09
2018-12-22T00:39:59.821Z,73.09
2018-12-22T00:42:27.443Z,73.22
2018-12-22T00:44:55.427Z,72.84
2018-12-22T00:47:23.001Z,73.40
2018-12-22T00:49:50.564Z,73.45
2018-12-22T00:52:18.157Z,73.15
2018-12-22T00:54:46.084Z,73.53
2018-12-22T00:57:14.640Z,74.01
2018-12-22T00:59:42.258Z,73.97
2018-12-22T01:02:09.875Z,74.30
2018-12-22T01:04:37.773Z,74.36
2018-12-22T01:07:05.385Z,74.56
2018-12-22T01:09:32.981Z,74.47
2018-12-22T01:12:00.560Z,74.69
2018-12-22T01:14:28.123Z,75.12
2018-12-22T01:16:55.681Z,74.97
2018-12-22T01:19:24.766Z,75.52
2018-12-22T01:21:52.380Z,75.80
2018-12-22T01:24:20.308Z,75.18
2018-12-22T01:26:47.884Z,75.45
2018-12-22T01:29:15.564Z,75.08
2018-12-22T01:31:43.212Z,74.99
2018-12-22T01:34:11.163Z,75.15
2018-12-22T01:36:38.774Z,75.51
2018-12-22T01:39:06.466Z,75.16
2018-12-22T01:41:34.077Z,75.54
2018-12-22T01:44:02.018Z,76.12
2018-12-22T01:46:29.673Z,76.34
2018-12-22T01:48:57.307Z,76.60
2018-12-22T01:51:25.417Z,76.71
2018-12-22T01:53:52.998Z,77.47
2018-12-22T01:56:20.580Z,76.53
2018-12-22T01:58:48.181Z,77.30
2018-12-22T02:01:16.212Z,77.72
2018-12-22T02:03:43.811Z,77.58
2018-12-22T02:06:12.094Z,77.54
2018-12-22T02:08:40.638Z,77.73
2018-12-22T02:11:08.521Z,77.34
2018-12-22T02:13:36.121Z,77.96
2018-12-22T02:16:03.747Z,77.50
2018-12-22T02:18:31.349Z,78.27
2018-12-22T02:20:59.373Z,78.03
2018-12-22T02:23:27.075Z,78.32
2018-12-22T02:25:54.661Z,78.03
2018-12-22T02:28:22.216Z,78.13
2018-12-22T02:30:50.241Z,78.95
2018-12-22T02:33:17.834Z,78.87
2018-12-22T02:35:45.421Z,78.45
2018-12-22T02:38:13.019Z,78.88
2018-12-22T02:40:41.905Z,78.68
2018-12-22T02:43:09.502Z,79.09
2018-12-22T02:45:37.076Z,79.40
2018-12-22T02:48:04.690Z,78.94
2018-12-22T02:50:33.837Z,79.41
2018-12-22T02:53:05.233Z,79.39
2018-12-22T02:55:32.863Z,79.44
2018-12-22T02:58:00.477Z,79.36
2018-12-22T03:00:28.475Z,79.47
2018-12-22T03:02:56.223Z,79.47
2018-12-22T03:05:23.908Z,79.74
2018-12-22T03:07:51.488Z,80.16
2018-12-22T03:10:19.419Z,79.60
2018-12-22T03:12:47.030Z,79.86
2018-12-22T03:15:14.623Z,79.60
2018-12-22T03:17:42.212Z,79.99
2018-12-22T03:20:10.218Z,80.22
2018-12-22T03:22:37.838Z,79.59
2018-12-22T03:25:05.476Z,80.42
2018-12-22T03:27:33.088Z,79.83
2018-12-22T03:30:01.054Z,80.31
2018-12-22T03:32:28.627Z,79.71
2018-12-22T03:34:56.242Z,80.05
2018-12-22T03:37:24.254Z,80.02
2018-12-22T03:39:51.872Z,79.54
2018-12-22T03:42:19.500Z,79.87
2018-12-22T03:44:47.150Z,79.74
2018-12-22T03:47:14.717Z,80.42
2018-12-22T03:49:42.330Z,80.49
2018-12-22T03:52:12.316Z,79.90
2018-12-22T03:54:39.940Z,80.19
2018-12-22T03:57:07.549Z,80.03
2018-12-22T03:59:35.136Z,79.95
2018-12-22T04:02:03.154Z,80.02
2018-12-22T04:04:30.787Z,80.69
2018-12-22T04:06:58.403Z,80.77
2018-12-22T04:09:26.372Z,80.36
2018-12-22T04:11:53.973Z,80.73
2018-12-22T04:14:21.556Z,80.14
2018-12-22T04:16:49.522Z,80.49
2018-12-22T04:19:17.118Z,80.73
2018-12-22T04:21:44.751Z,80.06
2018-12-22T04:24:12.365Z,80.08
2018-12-22T04:26:40.340Z,80.53
2018-12-22T04:29:07.904Z,80.56
2018-12-22T04:31:35.500Z,80.25
2018-12-22T04:34:03.076Z,80.62
2018-12-22T04:36:31.030Z,80.02
2018-12-22T04:38:58.622Z,80.21
2018-12-22T04:41:26.203Z,80.53
2018-12-22T04:43:53.805Z,81.25
2018-12-22T04:46:21.442Z,81.18
2018-12-22T04:48:49.060Z,81.03
2018-12-22T04:51:16.644Z,80.91
2018-12-22T04:53:44.736Z,81.41
2018-12-22T04:56:12.461Z,81.06
2018-12-22T04:58:40.100Z,80.99
2018-12-22T05:01:07.739Z,81.52
2018-12-22T05:03:36.945Z,81.58
2018-12-22T05:06:04.533Z,81.36
2018-12-22T05:08:32.167Z,81.30
2018-12-22T05:10:59.785Z,81.37
2018-12-22T05:13:27.759Z,81.20
2018-12-22T05:15:55.362Z,81.07
2018-12-22T05:18:22.950Z,81.89
2018-12-22T05:20:50.994Z,81.47
2018-12-22T05:23:18.614Z,81.19
2018-12-22T05:25:46.201Z,81.33
2018-12-22T05:28:13.819Z,80.64
2018-12-22T05:30:41.821Z,80.81
2018-12-22T05:33:09.420Z,81.20
2018-12-22T05:35:36.981Z,81.47
2018-12-22T05:38:05.222Z,81.84
2018-12-22T05:40:33.294Z,81.34
2018-12-22T05:43:00.918Z,81.62
2018-12-22T05:45:28.533Z,81.14
2018-12-22T05:47:56.108Z,81.48
2018-12-22T05:50:24.160Z,81.11
2018-12-22T05:52:51.722Z,81.68
2018-12-22T05:55:19.344Z,81.77
2018-12-22T05:57:47.381Z,81.27
2018-12-22T06:00:15.445Z,81.21
2018-12-22T06:02:43.065Z,81.71
2018-12-22T06:05:10.669Z,80.92
2018-12-22T06:07:38.298Z,82.01
2018-12-22T06:10:06.224Z,81.78
2018-12-22T06:12:33.850Z,81.79
2018-12-22T06:15:01.414Z,81.71
2018-12-22T06:17:29.475Z,81.50
2018-12-22T06:19:57.064Z,81.70
2018-12-22T06:22:24.648Z,81.60
2018-12-22T06:24:52.227Z,81.56
2018-12-22T06:27:20.320Z,81.15
2018-12-22T06:29:49.140Z,81.05
2018-12-22T06:32:17.485Z,81.15
2018-12-22T06:34:45.521Z,81.41
2018-12-22T06:37:13.104Z,81.11
2018-12-22T06:39:40.710Z,80.72
2018-12-22T06:42:09.343Z,80.63
2018-12-22T06:44:38.278Z,81.07
2018-12-22T06:47:05.890Z,81.14
2018-12-22T06:49:34.146Z,81.35
2018-12-22T06:52:01.765Z,80.41
2018-12-22T06:54:32.954Z,80.66
2018-12-22T06:57:00.577Z,80.49
2018-12-22T06:59:28.172Z,80.38
2018-12-22T07:01:56.185Z,80.75
2018-12-22T07:04:24.360Z,80.77
2018-12-22T07:06:52.051Z,80.23
2018-12-22T07:09:23.464Z,80.60
2018-12-22T07:11:51.060Z,80.03
2018-12-22T07:14:18.647Z,80.73
2018-12-22T07:16:47.649Z,80.81
2018-12-22T07:19:15.246Z,81.59
2018-12-22T07:21:42.910Z,81.79
2018-12-22T07:24:10.880Z,81.46
2018-12-22T07:26:39.569Z,82.26
2018-12-22T07:29:08.110Z,81.51
2018-12-22T07:31:36.072Z,81.59
2018-12-22T07:34:03.649Z,82.47
2018-12-22T07:36:31.252Z,81.65
2018-12-22T07:38:59.308Z,82.06
2018-12-22T07:41:27.779Z,82.13
2018-12-22T07:43:56.327Z,82.20
2018-12-22T07:46:24.623Z,82.61
2018-12-22T07:48:54.247Z,82.32
2018-12-22T07:51:23.149Z,82.20
2018-12-22T07:53:50.805Z,82.53
2018-12-22T07:56:18.439Z,82.80
2018-12-22T07:58:46.493Z,82.37
2018-12-22T08:01:14.116Z,83.03
2018-12-22T08:03:41.790Z,82.59
2018-12-22T08:06:10.321Z,82.82
2018-12-22T08:08:37.884Z,83.20
2018-12-22T08:11:05.737Z,82.71
2018-12-22T08:13:33.805Z,82.51
2018-12-22T08:16:01.418Z,82.93
2018-12-22T08:18:30.080Z,82.35
2018-12-22T08:20:58.974Z,82.60
2018-12-22T08:23:26.571Z,83.02
2018-12-22T08:25:54.146Z,83.04
2018-12-22T08:28:22.129Z,82.56
2018-12-22T08:30:49.766Z,83.08
2018-12-22T08:33:17.788Z,82.30
2018-12-22T08:35:47.810Z,82.42
2018-12-22T08:38:15.452Z,82.40
2018-12-22T08:40:43.914Z,82.42
2018-12-22T08:43:11.813Z,82.49
2018-12-22T08:45:39.418Z,81.87
2018-12-22T08:48:07.059Z,82.65
2018-12-22T08:50:35.030Z,82.11
2018-12-22T08:53:02.703Z,82.34
2018-12-22T08:55:30.332Z,81.69
2018-12-22T08:57:59.227Z,81.74
2018-12-22T09:00:28.071Z,82.07
2018-12-22T09:02:55.741Z,81.33
2018-12-22T09:05:25.310Z,82.08
2018-12-22T09:07:52.905Z,81.48
2018-12-22T09:10:21.388Z,81.25
2018-12-22T09:12:52.331Z,81.65
2018-12-22T09:15:20.021Z,81.63
2018-12-22T09:17:47.691Z,82.03
2018-12-22T09:20:20.281Z,81.78
2018-12-22T09:22:47.973Z,81.19
2018-12-22T09:25:15.671Z,81.15
2018-12-22T09:27:43.697Z,81.32
2018-12-22T09:30:11.317Z,81.07
2018-12-22T09:32:40.098Z,81.22
2018-12-22T09:35:08.145Z,81.12
2018-12-22T09:37:35.801Z,81.03
2018-12-22T09:40:03.422Z,80.77
2018-12-22T09:42:31.497Z,80.95
2018-12-22T09:44:59.100Z,80.43
2018-12-22T09:47:26.714Z,80.97
2018-12-22T09:49:54.630Z,80.62
2018-12-22T09:52:22.215Z,80.35
2018-12-22T09:54:49.813Z,80.75
2018-12-22T09:57:17.867Z,80.22
2018-12-22T09:59:45.513Z,80.77
2018-12-22T10:02:14.538Z,79.98
2018-12-22T10:04:43.360Z,80.06
2018-12-22T10:07:10.931Z,80.13
2018-12-22T10:09:38.529Z,80.22
2018-12-22T10:12:08.509Z,79.98
2018-12-22T10:14:36.110Z,80.12
2018-12-22T10:17:04.927Z,79.85
2018-12-22T10:19:34.137Z,79.78
2018-12-22T10:22:03.980Z,79.70
2018-12-22T10:24:32.326Z,79.97
2018-12-22T10:27:00.234Z,79.63
2018-12-22T10:29:27.841Z,79.42
2018-12-22T10:31:55.465Z,79.36
2018-12-22T10:34:27.299Z,79.80
2018-12-22T10:36:54.904Z,79.76
2018-12-22T10:39:22.512Z,79.28
2018-12-22T10:41:51.531Z,79.22
2018-12-22T10:44:19.123Z,79.20
2018-12-22T10:46:46.715Z,79.71
2018-12-22T10:49:15.160Z,79.09
2018-12-22T10:51:42.763Z,79.44
2018-12-22T10:54:10.362Z,78.99
2018-12-22T10:56:38.285Z,79.13
2018-12-22T10:59:05.912Z,78.75
2018-12-22T11:01:34.053Z,79.23
2018-12-22T11:04:02.952Z,79.19
2018-12-22T11:06:33.416Z,78.75
2018-12-22T11:09:01.025Z,78.60
2018-12-22T11:11:36.653Z,78.97
2018-12-22T11:14:07.913Z,78.98
2018-12-22T11:16:35.511Z,79.10
2018-12-22T11:19:03.490Z,78.75
2018-12-22T11:21:31.219Z,78.70
2018-12-22T11:23:58.867Z,78.42
2018-12-22T11:26:26.865Z,78.44
2018-12-22T11:28:54.510Z,78.57
2018-12-22T11:31:22.098Z,78.43
2018-12-22T11:33:50.049Z,78.20
2018-12-22T11:36:18.284Z,77.87
2018-12-22T11:38:46.989Z,77.75
2018-12-22T11:41:15.959Z,77.68
2018-12-22T11:43:43.546Z,77.40
2018-12-22T11:46:11.178Z,78.24
2018-12-22T11:48:39.780Z,77.77
2018-12-22T11:51:07.425Z,77.93
2018-12-22T11:53:35.435Z,77.79
2018-12-22T11:56:03.090Z,77.53
2018-12-22T11:58:30.794Z,77.48
2018-12-22T12:00:58.844Z,78.40
2018-12-22T12:03:27.281Z,77.43
2018-12-22T12:05:54.948Z,77.85
2018-12-22T12:08:22.837Z,77.67
2018-12-22T12:10:50.424Z,78.42
2018-12-22T12:13:18.805Z,78.30
2018-12-22T12:15:47.474Z,78.34
2018-12-22T12:18:15.273Z,77.96
2018-12-22T12:20:42.845Z,77.70
2018-12-22T12:23:10.890Z,77.77
2018-12-22T12:25:38.520Z,77.96
2018-12-22T12:28:06.113Z,77.49
2018-12-22T12:30:34.066Z,77.26
2018-12-22T12:33:01.721Z,77.54
2018-12-22T12:35:29.410Z,77.03
2018-12-22T12:37:57.687Z,77.86
2018-12-22T12:40:25.295Z,77.77
2018-12-22T12:42:54.961Z,77.65
2018-12-22T12:45:22.926Z,77.70
2018-12-22T12:47:50.558Z,78.57
2018-12-22T12:50:18.414Z,79.26
2018-12-22T12:52:46.485Z,79.75
2018-12-22T12:55:14.641Z,79.86
2018-12-22T12:57:42.255Z,80.32
2018-12-22T13:00:13.770Z,81.21
2018-12-22T13:02:41.399Z,81.20
2018-12-22T13:05:09.089Z,81.73
2018-12-22T13:07:37.994Z,81.55
2018-12-22T13:10:05.657Z,81.87
2018-12-22T13:12:33.314Z,81.82
2018-12-22T13:15:02.239Z,81.54
2018-12-22T13:17:29.847Z,82.27
2018-12-22T13:19:58.089Z,82.15
2018-12-22T13:22:26.027Z,81.95
2018-12-22T13:24:53.661Z,82.41
2018-12-22T13:27:21.294Z,82.24
2018-12-22T13:29:49.275Z,82.51
2018-12-22T13:32:20.674Z,82.22
2018-12-22T13:34:50.609Z,82.61
2018-12-22T13:37:18.546Z,82.29
2018-12-22T13:39:46.195Z,82.06
2018-12-22T13:42:13.766Z,81.95
2018-12-22T13:44:43.472Z,82.27
2018-12-22T13:47:11.047Z,81.88
2018-12-22T13:49:39.955Z,81.74
2018-12-22T13:52:08.081Z,82.05
2018-12-22T13:54:39.141Z,81.67
2018-12-22T13:57:06.774Z,81.76
2018-12-22T13:59:35.714Z,82.13
2018-12-22T14:02:03.373Z,82.28
2018-12-22T14:04:31.003Z,82.39
2018-12-22T14:07:00.516Z,81.82
2018-12-22T14:09:29.301Z,82.41
2018-12-22T14:11:56.967Z,82.08
2018-12-22T14:14:24.957Z,82.40
2018-12-22T14:16:52.595Z,81.66
2018-12-22T14:19:20.209Z,81.87
2018-12-22T14:21:50.505Z,81.42
2018-12-22T14:24:19.488Z,81.94
2018-12-22T14:26:47.129Z,81.86
2018-12-22T14:29:15.217Z,81.04
2018-12-22T14:31:43.794Z,81.24
2018-12-22T14:34:11.726Z,81.11
2018-12-22T14:36:39.624Z,81.18
2018-12-22T14:39:07.268Z,81.20
2018-12-22T14:41:34.897Z,81.27
2018-12-22T14:44:03.858Z,81.17
2018-12-22T14:46:32.107Z,80.85
2018-12-22T14:49:00.672Z,80.50
2018-12-22T14:51:28.660Z,80.75
2018-12-22T14:53:56.270Z,80.76
2018-12-22T14:56:23.879Z,81.18
2018-12-22T14:58:52.928Z,81.10
2018-12-22T15:01:20.538Z,80.80
2018-12-22T15:03:48.208Z,80.16
2018-12-22T15:06:16.265Z,80.72
2018-12-22T15:08:43.884Z,80.99
2018-12-22T15:11:11.568Z,81.17
2018-12-22T15:13:42.914Z,80.72
2018-12-22T15:16:10.634Z,81.25
2018-12-22T15:18:38.338Z,81.38
2018-12-22T15:21:10.209Z,81.28
2018-12-22T15:23:38.671Z,81.55
2018-12-22T15:26:07.021Z,81.26
2018-12-22T15:28:35.798Z,81.77
2018-12-22T15:31:03.440Z,81.91
2018-12-22T15:33:31.021Z,82.20
2018-12-22T15:35:59.029Z,82.69
2018-12-22T15:38:26.656Z,81.95
2018-12-22T15:40:54.252Z,82.15
2018-12-22T15:43:23.088Z,81.95
2018-12-22T15:45:50.725Z,82.10
2018-12-22T15:48:18.342Z,82.56
2018-12-22T15:50:47.662Z,82.80
2018-12-22T15:53:15.298Z,82.98
2018-12-22T15:55:43.816Z,82.34
2018-12-22T15:58:14.283Z,82.39
2018-12-22T16:00:41.884Z,81.71
2018-12-22T16:03:09.529Z,81.60
2018-12-22T16:05:37.572Z,82.29
2018-12-22T16:08:06.339Z,82.40
2018-12-22T16:10:34.864Z,82.33
2018-12-22T16:13:02.789Z,82.07
2018-12-22T16:15:31.085Z,82.43
2018-12-22T16:17:58.713Z,81.91
2018-12-22T16:20:27.413Z,82.29
2018-12-22T16:22:55.683Z,82.17
2018-12-22T16:25:23.936Z,82.24
2018-12-22T16:27:51.947Z,82.09
2018-12-22T16:30:20.601Z,81.77
2018-12-22T16:32:48.242Z,82.48
2018-12-22T16:35:18.077Z,81.41
2018-12-22T16:37:45.681Z,81.67
2018-12-22T16:40:13.348Z,81.69
2018-12-22T16:42:44.510Z,81.95
2018-12-22T16:45:12.866Z,81.63
2018-12-22T16:47:42.522Z,81.82
2018-12-22T16:50:10.901Z,82.42
2018-12-22T16:52:39.015Z,81.86
2018-12-22T16:55:08.350Z,81.78
2018-12-22T16:57:36.514Z,81.83
2018-12-22T17:00:05.999Z,82.16
2018-12-22T17:02:36.314Z,81.45
2018-12-22T17:05:03.973Z,81.54
2018-12-22T17:07:32.254Z,81.51
2018-12-22T17:10:00.586Z,81.55
2018-12-22T17:12:30.455Z,81.78
2018-12-22T17:14:59.062Z,81.91
2018-12-22T17:17:27.026Z,81.56
2018-12-22T17:19:54.689Z,82.27
2018-12-22T17:22:23.041Z,81.92
2018-12-22T17:24:52.624Z,81.74
2018-12-22T17:27:20.240Z,81.80
2018-12-22T17:29:48.829Z,82.19
2018-12-22T17:32:16.859Z,82.08
2018-12-22T17:34:44.469Z,82.09
2018-12-22T17:37:12.648Z,81.57
2018-12-22T17:39:40.702Z,81.57
2018-12-22T17:42:08.299Z,82.11
2018-12-22T17:44:35.929Z,81.46
2018-12-22T17:47:03.848Z,81.81
2018-12-22T17:49:31.469Z,82.05
2018-12-22T17:52:00.673Z,81.85
2018-12-22T17:54:28.676Z,81.77
2018-12-22T17:56:56.271Z,81.71
2018-12-22T17:59:23.875Z,81.31
2018-12-22T18:01:53.361Z,81.90
2018-12-22T18:04:23.109Z,82.16
2018-12-22T18:06:50.781Z,81.99
2018-12-22T18:09:18.771Z,82.25
2018-12-22T18:11:46.364Z,82.33
2018-12-22T18:14:14.012Z,81.91
2018-12-22T18:16:41.933Z,81.68
2018-12-22T18:19:09.597Z,81.94
2018-12-22T18:21:38.493Z,81.59
2018-12-22T18:24:06.589Z,81.39
2018-12-22T18:26:34.264Z,81.73
2018-12-22T18:29:01.888Z,82.23
2018-12-22T18:31:29.983Z,81.45
2018-12-22T18:33:57.600Z,81.43
2018-12-22T18:36:27.770Z,81.96
2018-12-22T18:38:55.840Z,81.88
2018-12-22T18:41:23.734Z,82.21
2018-12-22T18:43:54.314Z,82.30
2018-12-22T18:46:22.279Z,81.95
2018-12-22T18:48:52.738Z,82.29
2018-12-22T18:51:20.982Z,82.14
2018-12-22T18:53:50.609Z,82.13
2018-12-22T18:56:20.085Z,81.86
2018-12-22T18:58:47.730Z,82.32
2018-12-22T19:01:21.692Z,82.14
2018-12-22T19:03:49.328Z,82.13
2018-12-22T19:06:16.958Z,82.31
2018-12-22T19:08:46.363Z,82.30
2018-12-22T19:11:14.931Z,82.32
2018-12-22T19:13:42.532Z,82.74
2018-12-22T19:16:11.577Z,82.49
2018-12-22T19:18:39.732Z,82.52
2018-12-22T19:21:07.359Z,83.20
2018-12-22T19:23:36.284Z,83.04
2018-12-22T19:26:03.924Z,82.80
2018-12-22T19:28:31.497Z,83.33
2018-12-22T19:30:59.603Z,82.88
2018-12-22T19:33:28.088Z,83.50
2018-12-22T19:35:55.941Z,83.32
2018-12-22T19:38:23.888Z,83.83
2018-12-22T19:40:52.469Z,83.50
2018-12-22T19:43:21.150Z,83.06
2018-12-22T19:45:49.734Z,83.49
2018-12-22T19:48:18.923Z,83.14
2018-12-22T19:50:47.288Z,83.77
2018-12-22T19:53:15.390Z,83.48
2018-12-22T19:55:43.925Z,83.25
2018-12-22T19:58:11.545Z,83.36
2018-12-22T20:00:39.568Z,83.28
2018-12-22T20:03:07.247Z,83.14
2018-12-22T20:05:34.860Z,83.33
2018-12-22T20:08:02.748Z,83.10
2018-12-22T20:10:30.361Z,82.87
2018-12-22T20:12:59.137Z,82.50
2018-12-22T20:15:27.609Z,83.01
2018-12-22T20:17:56.214Z,82.53
2018-12-22T20:20:23.829Z,82.89
2018-12-22T20:22:52.430Z,83.02
2018-12-22T20:25:20.008Z,83.40
2018-12-22T20:27:47.623Z,82.52
2018-12-22T20:30:15.631Z,82.60
2018-12-22T20:32:43.314Z,82.57
2018-12-22T20:35:10.931Z,83.13
2018-12-22T20:37:39.014Z,83.72
2018-12-22T20:40:06.597Z,82.93
2018-12-22T20:42:35.785Z,83.26
2018-12-22T20:45:04.499Z,83.30
2018-12-22T20:47:32.109Z,83.45
2018-12-22T20:49:59.680Z,83.48
2018-12-22T20:52:27.670Z,83.47
2018-12-22T20:54:55.870Z,83.33
2018-12-22T20:57:23.882Z,83.01
2018-12-22T20:59:51.891Z,83.43
2018-12-22T21:02:20.206Z,83.00
2018-12-22T21:04:47.788Z,82.89
2018-12-22T21:07:16.861Z,82.65
2018-12-22T21:09:44.444Z,83.57
2018-12-22T21:12:12.590Z,82.79
2018-12-22T21:14:40.495Z,82.54
2018-12-22T21:17:08.238Z,82.84
2018-12-22T21:19:35.849Z,82.61
2018-12-22T21:22:05.910Z,82.31
2018-12-22T21:24:34.156Z,82.83
2018-12-22T21:27:05.068Z,82.04
2018-12-22T21:32:13.440Z,83.58
2018-12-22T21:34:41.631Z,82.78
2018-12-22T21:37:09.924Z,82.62
2018-12-22T21:39:38.286Z,83.10
2018-12-22T21:42:06.109Z,82.78
2018-12-22T21:44:34.967Z,82.26
2018-12-22T21:47:03.211Z,82.96
2018-12-22T21:49:33.599Z,82.61
2018-12-22T21:52:04.364Z,82.67
2018-12-22T21:54:33.655Z,82.52
2018-12-22T21:57:03.881Z,82.80
2018-12-22T21:59:31.798Z,82.62
2018-12-22T22:01:59.520Z,82.73
2018-12-22T22:04:27.115Z,83.08
2018-12-22T22:06:55.717Z,82.78
2018-12-22T22:09:23.972Z,82.93
2018-12-22T22:11:52.565Z,83.05
2018-12-22T22:14:21.273Z,82.83
2018-12-22T22:16:48.919Z,83.20
2018-12-22T22:19:16.613Z,82.32
2018-12-22T22:21:44.717Z,82.21
2018-12-22T22:24:12.334Z,82.25
2018-12-22T22:26:39.935Z,82.28
2018-12-22T22:29:08.582Z,82.46
2018-12-22T22:31:37.530Z,82.17
2018-12-22T22:34:05.174Z,82.06
2018-12-22T22:36:33.081Z,82.61
2018-12-22T22:39:01.308Z,82.45
2018-12-22T22:41:31.053Z,82.12
2018-12-22T22:43:58.970Z,82.17
2018-12-22T22:46:26.593Z,82.52
2018-12-22T22:48:54.286Z,82.58
2018-12-22T22:51:23.268Z,83.20
2018-12-22T22:53:50.937Z,83.31
2018-12-22T22:56:18.559Z,83.36
2018-12-22T22:58:46.461Z,83.31
2018-12-22T23:01:14.377Z,83.13
2018-12-22T23:03:42.609Z,83.50
2018-12-22T23:06:11.137Z,82.68
2018-12-22T23:08:40.252Z,82.67
2018-12-22T23:11:09.602Z,82.81
2018-12-22T23:13:37.539Z,82.72
2018-12-22T23:16:05.178Z,83.27
2018-12-22T23:18:34.313Z,82.80
2018-12-22T23:21:02.222Z,83.31
2018-12-22T23:23:29.884Z,83.01
2018-12-22T23:25:57.601Z,82.97
2018-12-22T23:28:25.527Z,83.70
2018-12-22T23:30:53.582Z,83.16
2018-12-22T23:33:21.210Z,83.46
2018-12-22T23:35:49.759Z,82.89
2018-12-22T23:38:17.428Z,82.95
2018-12-22T23:40:45.254Z,83.50
2018-12-22T23:43:13.222Z,83.67
2018-12-22T23:45:41.848Z,83.48
2018-12-22T23:48:09.428Z,82.96
2018-12-22T23:50:37.344Z,83.38
2018-12-22T23:53:05.774Z,83.16
2018-12-22T23:55:33.489Z,83.16
2018-12-22T23:58:01.478Z,83.18
